Time;durP1;ratioP1;P1;durP2;ratioP2;P2;SDS_P1;SDS_P2;PMS_P1;PMS_P2;Temp;Humidity;BMP_temperature;BMP_pressure;BME280_temperature;BME280_humidity;BME280_pressure;Samples;Min_cycle;Max_cycle;Signal;HPM_P1;HPM_P2
2022/12/02 00:02:28;;;;;;;89.97;33.40;;;;;;;-143.48;88.06;118439.88;5035814;28;20516;-32
2022/12/02 00:05:20;;;;;;;87.03;33.80;;;;;;;-143.48;87.96;118439.88;5036046;28;20329;-31
2022/12/02 00:07:46;;;;;;;89.55;33.22;;;;;;;-143.48;87.65;118439.88;5036039;28;20025;-31
2022/12/02 00:10:23;;;;;;;87.80;33.60;;;;;;;-143.48;87.53;118439.88;5035295;28;20033;-32
2022/12/02 00:12:49;;;;;;;89.35;33.22;;;;;;;-143.48;86.59;118439.88;5035369;28;20029;-32
2022/12/02 00:15:35;;;;;;;84.05;32.25;;;;;;;-143.48;87.29;118439.88;5035587;28;20033;-31
2022/12/02 00:18:01;;;;;;;84.93;33.25;;;;;;;-143.48;86.16;118439.88;5035497;28;20029;-32
2022/12/02 00:20:26;;;;;;;82.32;31.13;;;;;;;-143.48;86.12;118439.88;5035342;28;20392;-32
2022/12/02 00:22:51;;;;;;;78.70;31.50;;;;;;;-143.48;85.61;118439.88;5035416;28;20088;-32
2022/12/02 00:25:17;;;;;;;84.80;31.45;;;;;;;-143.48;85.05;118439.88;5035186;28;20036;-32
2022/12/02 00:27:43;;;;;;;81.00;31.20;;;;;;;-143.48;84.69;118439.88;5035361;28;20468;-32
2022/12/02 00:30:09;;;;;;;80.72;29.98;;;;;;;-143.48;84.07;118439.88;5034160;28;20084;-32
2022/12/02 00:32:34;;;;;;;81.18;30.05;;;;;;;-143.48;84.38;118439.88;5035324;28;20055;-32
2022/12/02 00:34:59;;;;;;;81.55;29.95;;;;;;;-143.48;83.46;118439.88;5035473;28;20048;-32
2022/12/02 00:37:25;;;;;;;79.45;30.27;;;;;;;-143.48;83.25;118439.88;5034896;28;20108;-32
2022/12/02 00:39:50;;;;;;;81.88;30.98;;;;;;;-143.48;82.45;118439.88;5035381;28;20029;-32
2022/12/02 00:42:15;;;;;;;79.50;30.77;;;;;;;-143.48;82.41;118439.88;5034876;28;20034;-32
2022/12/02 00:47:24;;;;;;;77.00;28.42;;;;;;;-143.48;82.88;118439.88;5035526;28;20087;-32
2022/12/02 00:49:49;;;;;;;81.65;29.75;;;;;;;-143.48;82.89;118439.88;5035108;28;20025;-32
2022/12/02 00:52:15;;;;;;;77.57;29.65;;;;;;;-143.48;82.36;118439.88;5035026;28;20539;-32
2022/12/02 00:54:40;;;;;;;78.68;29.02;;;;;;;-143.48;82.80;118439.88;5034546;28;20037;-32
2022/12/02 00:57:05;;;;;;;82.18;30.70;;;;;;;-143.48;83.58;118439.88;5034572;28;20033;-32
2022/12/02 00:59:31;;;;;;;81.30;30.02;;;;;;;-143.48;83.30;118439.88;5034732;28;20027;-32
2022/12/02 01:01:56;;;;;;;83.07;29.98;;;;;;;-143.48;81.91;118439.88;5033210;28;20075;-32
2022/12/02 01:04:21;;;;;;;82.47;29.42;;;;;;;-143.48;82.65;118439.88;5034717;28;20018;-32
2022/12/02 01:06:47;;;;;;;79.20;29.27;;;;;;;-143.48;82.29;118439.88;5034323;28;20064;-32
2022/12/02 01:09:12;;;;;;;81.10;30.40;;;;;;;-143.48;82.63;118439.88;5034059;28;20017;-32
2022/12/02 01:11:38;;;;;;;78.70;28.40;;;;;;;-143.48;83.03;118439.88;5034671;28;20025;-32
2022/12/02 01:14:03;;;;;;;81.72;30.02;;;;;;;-143.48;83.33;118439.88;5034277;28;20476;-32
2022/12/02 01:16:28;;;;;;;83.90;29.40;;;;;;;-143.48;83.43;118439.88;5034587;28;20025;-32
2022/12/02 01:18:53;;;;;;;75.55;29.77;;;;;;;-143.48;84.65;118439.88;5034157;28;20380;-32
2022/12/02 01:21:20;;;;;;;88.28;31.05;;;;;;;-143.48;84.57;118439.88;5034082;28;20102;-32
2022/12/02 01:23:45;;;;;;;76.40;28.48;;;;;;;-143.48;85.03;118439.88;5034382;28;20029;-32
2022/12/02 01:26:11;;;;;;;84.15;30.00;;;;;;;-143.48;85.15;118439.88;5034510;28;20032;-32
2022/12/02 01:28:36;;;;;;;86.30;31.42;;;;;;;-143.48;85.16;118439.88;5032641;28;20029;-32
2022/12/02 01:31:01;;;;;;;85.35;30.63;;;;;;;-143.48;85.83;118439.88;5033799;28;20033;-32
2022/12/02 01:33:27;;;;;;;77.63;30.75;;;;;;;-143.48;85.38;118439.88;5034384;28;20102;-31
2022/12/02 01:35:52;;;;;;;79.07;30.30;;;;;;;-143.48;84.55;118439.88;5034036;28;20358;-32
2022/12/02 01:38:17;;;;;;;81.18;31.05;;;;;;;-143.48;85.07;118439.88;5034113;28;20053;-32
2022/12/02 01:40:43;;;;;;;78.68;29.70;;;;;;;-143.48;85.21;118439.88;5033956;28;20091;-32
2022/12/02 01:43:08;;;;;;;88.65;30.83;;;;;;;-143.48;85.12;118439.88;5033952;28;20035;-31
2022/12/02 01:45:34;;;;;;;82.57;30.63;;;;;;;-143.48;84.43;118439.88;5033703;28;20108;-32
2022/12/02 01:48:01;;;;;;;77.63;30.48;;;;;;;-143.48;84.52;118439.88;5033526;28;20056;-32
2022/12/02 01:50:28;;;;;;;79.90;30.50;;;;;;;-143.48;83.75;118439.88;5033866;28;20025;-32
2022/12/02 01:52:53;;;;;;;78.82;30.55;;;;;;;-143.48;83.66;118439.88;5034036;28;20393;-32
2022/12/02 01:55:22;;;;;;;84.20;31.58;;;;;;;-143.48;83.49;118439.88;5033793;28;20025;-32
2022/12/02 01:57:47;;;;;;;74.47;28.55;;;;;;;-143.48;84.45;118439.88;5033984;28;20112;-32
2022/12/02 02:00:13;;;;;;;82.40;30.40;;;;;;;-143.48;83.74;118439.88;5033841;28;20117;-32
2022/12/02 02:02:40;;;;;;;79.68;29.85;;;;;;;-143.48;83.34;118439.88;5033413;28;20029;-32
2022/12/02 02:05:21;;;;;;;83.18;29.30;;;;;;;-143.48;83.29;118439.88;5033325;28;20026;-32
2022/12/02 02:07:50;;;;;;;74.13;28.67;;;;;;;-143.48;82.43;118439.88;5033659;28;20025;-31
2022/12/02 02:10:18;;;;;;;76.47;28.90;;;;;;;-143.48;81.92;118439.88;5033888;28;20099;-32
2022/12/02 02:12:44;;;;;;;72.85;28.95;;;;;;;-143.48;81.92;118439.88;5033333;28;20031;-32
2022/12/02 02:15:11;;;;;;;80.93;28.25;;;;;;;-143.48;81.86;118439.88;5033161;28;20029;-32
2022/12/02 02:17:37;;;;;;;79.85;28.08;;;;;;;-143.48;82.05;118439.88;5033082;28;20041;-32
2022/12/02 02:20:06;;;;;;;75.40;28.08;;;;;;;-143.48;82.54;118439.88;5033955;28;20108;-32
2022/12/02 02:22:40;;;;;;;85.55;29.20;;;;;;;-143.48;83.10;118439.88;5032852;28;20112;-32
2022/12/02 02:25:15;;;;;;;79.40;30.05;;;;;;;-143.48;83.09;118439.88;5033664;28;20094;-31
2022/12/02 02:27:44;;;;;;;80.80;29.30;;;;;;;-143.48;83.94;118439.88;5033640;28;20025;-31
2022/12/02 02:30:10;;;;;;;83.82;30.42;;;;;;;-143.48;83.08;118439.88;5033063;28;20045;-33
2022/12/02 02:32:35;;;;;;;80.53;30.20;;;;;;;-143.48;83.46;118439.88;5033577;28;20475;-32
2022/12/02 02:35:02;;;;;;;76.07;28.88;;;;;;;-143.48;83.90;118439.88;5033342;28;20116;-32
2022/12/02 02:37:27;;;;;;;83.32;29.00;;;;;;;-143.48;82.87;118439.88;5033057;28;20546;-32
2022/12/02 02:39:53;;;;;;;81.25;30.17;;;;;;;-143.48;84.32;118439.88;5033033;28;20060;-32
2022/12/02 02:42:18;;;;;;;87.00;29.20;;;;;;;-143.48;83.71;118439.88;5032951;28;20041;-32
2022/12/02 02:44:44;;;;;;;82.38;29.95;;;;;;;-143.48;83.35;118439.88;5032998;28;20032;-32
2022/12/02 02:47:09;;;;;;;76.50;28.50;;;;;;;-143.48;81.40;118439.88;5032990;28;20366;-32
2022/12/02 02:49:34;;;;;;;78.78;28.52;;;;;;;-143.48;82.15;118439.88;5033047;28;20025;-32
2022/12/02 02:52:00;;;;;;;73.22;27.77;;;;;;;-143.48;82.57;118439.88;5033155;28;20045;-32
2022/12/02 02:54:25;;;;;;;78.40;27.83;;;;;;;-143.48;81.98;118439.88;5033191;28;20377;-32
2022/12/02 02:56:50;;;;;;;79.68;28.63;;;;;;;-143.48;81.58;118439.88;5033106;28;20465;-32
2022/12/02 02:59:16;;;;;;;75.30;26.98;;;;;;;-143.48;81.26;118439.88;5032864;28;20021;-32
2022/12/02 03:01:44;;;;;;;82.30;29.52;;;;;;;-143.48;81.95;118439.88;5033051;28;20033;-32
2022/12/02 03:04:12;;;;;;;76.68;28.52;;;;;;;-143.48;81.62;118439.88;5032777;28;20017;-32
2022/12/02 03:06:39;;;;;;;84.40;29.25;;;;;;;-143.48;81.34;118439.88;5032772;28;20108;-32
2022/12/02 03:09:07;;;;;;;75.70;28.00;;;;;;;-143.48;82.25;118439.88;5032696;28;20083;-30
2022/12/02 03:11:34;;;;;;;81.40;28.25;;;;;;;-143.48;83.10;118439.88;5032768;28;20029;-32
2022/12/02 03:14:00;;;;;;;80.47;29.02;;;;;;;-143.48;83.56;118439.88;5032678;28;20029;-32
2022/12/02 03:16:26;;;;;;;87.80;29.40;;;;;;;-143.48;83.29;118439.88;5032557;28;20532;-32
2022/12/02 03:18:54;;;;;;;74.88;28.30;;;;;;;-143.48;83.70;118439.88;5032638;28;20025;-32
2022/12/02 03:21:21;;;;;;;76.10;27.40;;;;;;;-143.48;82.73;118439.88;5032735;28;20476;-32
2022/12/02 03:23:48;;;;;;;82.43;28.60;;;;;;;-143.48;82.87;118439.88;5032460;28;20032;-32
2022/12/02 03:26:14;;;;;;;80.63;28.55;;;;;;;-143.48;82.28;118439.88;5032550;28;20025;-30
2022/12/02 03:28:41;;;;;;;75.25;28.10;;;;;;;-143.48;81.97;118439.88;5032466;28;20068;-32
2022/12/02 03:31:08;;;;;;;78.32;29.02;;;;;;;-143.48;82.36;118439.88;5032414;28;20054;-32
2022/12/02 03:33:33;;;;;;;76.38;28.08;;;;;;;-143.48;81.54;118439.88;5033130;28;20040;-31
2022/12/02 03:35:58;;;;;;;78.30;27.65;;;;;;;-143.48;82.39;118439.88;5036104;28;20029;-32
2022/12/02 03:38:25;;;;;;;83.28;28.98;;;;;;;-143.48;81.86;118439.88;5036369;28;20032;-32
2022/12/02 03:40:51;;;;;;;86.72;29.52;;;;;;;-143.48;81.68;118439.88;5035965;28;20048;-32
2022/12/02 03:43:16;;;;;;;79.35;28.48;;;;;;;-143.48;81.72;118439.88;5036259;28;20061;-32
2022/12/02 03:45:42;;;;;;;75.68;26.90;;;;;;;-143.48;81.55;118439.88;5035965;28;20025;-32
2022/12/02 03:48:08;;;;;;;79.40;27.77;;;;;;;-143.48;80.89;118439.88;5036350;28;20481;-31
2022/12/02 03:50:33;;;;;;;71.65;27.08;;;;;;;-143.48;81.46;118439.88;5035886;28;20108;-32
2022/12/02 03:52:59;;;;;;;69.63;26.70;;;;;;;-143.48;81.70;118439.88;5036325;28;20035;-32
2022/12/02 03:55:24;;;;;;;76.03;26.95;;;;;;;-143.48;82.68;118439.88;5036597;28;20061;-32
2022/12/02 03:57:49;;;;;;;71.55;25.55;;;;;;;-143.48;82.17;118439.88;5035752;28;20030;-32
2022/12/02 04:00:15;;;;;;;71.22;26.25;;;;;;;-143.48;82.72;118439.88;5036168;28;20032;-32
2022/12/02 04:02:40;;;;;;;63.00;24.23;;;;;;;-143.48;81.79;118439.88;5035650;28;20511;-32
2022/12/02 04:05:06;;;;;;;61.85;24.00;;;;;;;-143.48;81.55;118439.88;5036002;28;20052;-32
2022/12/02 04:07:31;;;;;;;61.35;23.77;;;;;;;-143.48;81.18;118439.88;5035826;28;20080;-32
2022/12/02 04:09:57;;;;;;;60.30;23.65;;;;;;;-143.48;82.29;118439.88;5035734;28;20087;-32
2022/12/02 04:12:22;;;;;;;62.20;23.20;;;;;;;-143.48;82.46;118439.88;5035695;28;20095;-32
2022/12/02 04:14:47;;;;;;;57.03;22.05;;;;;;;-143.48;81.94;118439.88;5035463;28;20036;-32
2022/12/02 04:17:12;;;;;;;60.03;23.30;;;;;;;-143.48;82.54;118439.88;5035605;28;20068;-33
2022/12/02 04:19:38;;;;;;;54.58;22.52;;;;;;;-143.48;82.85;118439.88;5035597;28;20014;-31
2022/12/02 04:22:03;;;;;;;55.60;21.33;;;;;;;-143.48;82.18;118439.88;5035295;28;20055;-32
2022/12/02 04:24:28;;;;;;;55.00;21.00;;;;;;;-143.48;82.28;118439.88;5035160;28;20021;-32
2022/12/02 04:26:54;;;;;;;53.78;21.98;;;;;;;-143.48;82.23;118439.88;5035518;28;20056;-32
2022/12/02 04:29:19;;;;;;;51.35;20.75;;;;;;;-143.48;82.58;118439.88;5035116;28;20116;-32
2022/12/02 04:31:45;;;;;;;52.85;21.38;;;;;;;-143.48;82.46;118439.88;5034926;28;20056;-32
2022/12/02 04:34:10;;;;;;;56.13;21.17;;;;;;;-143.48;82.30;118439.88;5035336;28;20147;-31
2022/12/02 04:36:35;;;;;;;54.45;20.38;;;;;;;-143.48;82.90;118439.88;5035260;28;20040;-32
2022/12/02 04:39:01;;;;;;;52.25;20.45;;;;;;;-143.48;82.09;118439.88;5034986;28;20075;-32
2022/12/02 04:41:28;;;;;;;50.67;20.50;;;;;;;-143.48;82.27;118439.88;5035224;28;20440;-32
2022/12/02 04:43:53;;;;;;;57.58;21.63;;;;;;;-143.48;81.21;118439.88;5034843;28;20424;-32
2022/12/02 04:46:18;;;;;;;59.45;21.27;;;;;;;-143.48;81.93;118439.88;5034312;28;20033;-32
2022/12/02 04:48:44;;;;;;;54.42;20.75;;;;;;;-143.48;81.84;118439.88;5034981;28;20029;-32
2022/12/02 04:51:09;;;;;;;61.65;22.02;;;;;;;-143.48;82.07;118439.88;5034687;28;20022;-32
2022/12/02 04:53:34;;;;;;;57.97;21.52;;;;;;;-143.48;83.33;118439.88;5034967;28;20072;-32
2022/12/02 04:56:00;;;;;;;66.18;22.85;;;;;;;-143.48;83.67;118439.88;5034597;28;20495;-32
2022/12/02 04:58:25;;;;;;;57.13;20.30;;;;;;;-143.48;84.11;118439.88;5034794;28;20100;-32
2022/12/02 05:00:50;;;;;;;63.47;21.25;;;;;;;-143.48;83.22;118439.88;5034496;28;20461;-32
2022/12/02 05:03:15;;;;;;;67.43;21.88;;;;;;;-143.48;82.59;118439.88;5034763;28;20025;-32
2022/12/02 05:05:41;;;;;;;58.80;20.77;;;;;;;-143.48;82.80;118439.88;5035578;28;20025;-32
2022/12/02 05:08:06;;;;;;;59.55;20.25;;;;;;;-143.48;82.44;118439.88;5034261;28;20564;-32
2022/12/02 05:10:31;;;;;;;63.78;20.90;;;;;;;-143.48;82.60;118439.88;5034630;28;20025;-32
2022/12/02 05:12:57;;;;;;;58.35;21.35;;;;;;;-143.48;82.71;118439.88;5034545;28;20051;-32
2022/12/02 05:15:22;;;;;;;57.67;20.30;;;;;;;-143.48;82.48;118439.88;5034249;28;20118;-32
2022/12/02 05:17:48;;;;;;;67.38;21.48;;;;;;;-143.48;82.33;118439.88;5033872;28;20113;-31
2022/12/02 05:20:13;;;;;;;55.10;20.63;;;;;;;-143.48;81.22;118439.88;5034420;28;20070;-31
2022/12/02 05:22:39;;;;;;;53.67;19.83;;;;;;;-143.48;82.13;118439.88;5032233;28;20095;-32
2022/12/02 05:25:05;;;;;;;62.13;21.73;;;;;;;-143.48;81.91;118439.88;5032116;28;20018;-32
2022/12/02 05:27:30;;;;;;;60.72;20.73;;;;;;;-143.48;82.02;118439.88;5032494;28;20029;-32
2022/12/02 05:29:55;;;;;;;57.90;20.30;;;;;;;-143.48;81.50;118439.88;5031853;28;20037;-32
2022/12/02 05:32:21;;;;;;;62.05;20.83;;;;;;;-143.48;81.02;118439.88;5032048;28;20460;-32
2022/12/02 05:34:46;;;;;;;54.38;20.08;;;;;;;-143.48;81.63;118439.88;5031776;28;20117;-32
2022/12/02 05:37:11;;;;;;;56.30;20.77;;;;;;;-143.48;82.02;118439.88;5033273;28;20029;-31
2022/12/02 05:39:37;;;;;;;58.38;20.25;;;;;;;-143.48;81.58;118439.88;5033770;28;20441;-31
2022/12/02 05:42:07;;;;;;;57.92;20.30;;;;;;;-143.48;80.13;118439.88;5033805;28;20465;-31
2022/12/02 05:44:33;;;;;;;54.78;20.13;;;;;;;-143.48;81.10;118439.88;5034007;28;20029;-31
2022/12/02 05:47:01;;;;;;;57.88;20.00;;;;;;;-143.48;80.50;118439.88;5034171;28;20041;-32
2022/12/02 05:49:27;;;;;;;54.20;19.02;;;;;;;-143.48;79.23;118439.88;5033874;28;20108;-32
2022/12/02 05:51:57;;;;;;;56.33;20.33;;;;;;;-143.48;79.03;118439.88;5033591;28;20449;-32
2022/12/02 05:54:23;;;;;;;57.90;18.27;;;;;;;-143.48;78.97;118439.88;5033674;28;20026;-32
2022/12/02 05:56:49;;;;;;;51.72;18.38;;;;;;;-143.48;78.24;118439.88;5033619;28;20497;-32
2022/12/02 05:59:17;;;;;;;48.97;18.55;;;;;;;-143.48;78.54;118439.88;5033523;28;20088;-32
2022/12/02 06:01:47;;;;;;;50.00;17.67;;;;;;;-143.48;79.27;118439.88;5033710;28;20040;-32
2022/12/02 06:04:15;;;;;;;54.63;18.77;;;;;;;-143.48;78.71;118439.88;5033671;28;20025;-32
2022/12/02 06:06:41;;;;;;;47.88;17.45;;;;;;;-143.48;77.77;118439.88;5033336;28;20051;-32
2022/12/02 06:09:16;;;;;;;47.20;17.60;;;;;;;-143.48;77.30;118439.88;5033284;28;20500;-31
2022/12/02 06:11:42;;;;;;;48.67;17.50;;;;;;;-143.48;77.54;118439.88;5033679;28;20033;-32
2022/12/02 06:14:17;;;;;;;45.42;18.10;;;;;;;-143.48;77.28;118439.88;5033538;28;20033;-32
2022/12/02 06:16:47;;;;;;;46.33;17.88;;;;;;;-143.48;77.41;118439.88;5033509;28;20029;-32
2022/12/02 06:19:21;;;;;;;53.47;17.33;;;;;;;-143.48;77.06;118439.88;5032979;28;20097;-32
2022/12/02 06:21:46;;;;;;;46.60;16.85;;;;;;;-143.48;76.97;118439.88;5032725;28;20507;-31
2022/12/02 06:24:12;;;;;;;46.55;18.35;;;;;;;-143.48;76.65;118439.88;5014865;28;20105;-32
2022/12/02 06:26:37;;;;;;;53.03;18.25;;;;;;;-143.48;76.11;118439.88;5032512;28;20044;-32
2022/12/02 06:29:03;;;;;;;47.38;16.88;;;;;;;-143.48;75.78;118439.88;5032326;28;20033;-32
2022/12/02 06:31:37;;;;;;;49.13;17.10;;;;;;;-143.48;76.23;118439.88;5032531;28;20465;-32
2022/12/02 06:34:35;;;;;;;47.22;16.85;;;;;;;-143.48;76.06;118439.88;5032695;28;20017;-32
2022/12/02 06:37:11;;;;;;;43.55;16.40;;;;;;;-143.48;76.43;118439.88;5032967;28;20028;-32
2022/12/02 06:39:37;;;;;;;45.30;16.52;;;;;;;-143.48;76.02;118439.88;5033494;28;20021;-32
2022/12/02 06:42:14;;;;;;;54.63;16.63;;;;;;;-143.48;76.85;118439.88;5033024;28;20056;-32
2022/12/02 06:47:35;;;;;;;44.85;15.38;;;;;;;-143.48;76.36;118439.88;5033784;28;20427;-32
2022/12/02 06:50:03;;;;;;;39.95;15.93;;;;;;;-143.48;76.45;118439.88;5033113;28;20045;-33
2022/12/02 06:52:32;;;;;;;46.95;15.82;;;;;;;-143.48;76.46;118439.88;5033170;28;20049;-32
2022/12/02 06:54:57;;;;;;;39.65;15.82;;;;;;;-143.48;76.26;118439.88;5032872;28;20029;-32
2022/12/02 06:57:23;;;;;;;50.30;16.77;;;;;;;-143.48;76.06;118439.88;5032692;28;20044;-32
2022/12/02 06:59:50;;;;;;;46.63;15.43;;;;;;;-143.48;76.54;118439.88;5032807;28;20024;-32
2022/12/02 07:02:25;;;;;;;48.38;16.35;;;;;;;-143.48;76.16;118439.88;5032846;28;20036;-34
2022/12/02 07:04:51;;;;;;;44.42;16.45;;;;;;;-143.48;77.70;118439.88;5033142;28;20364;-32
2022/12/02 07:07:20;;;;;;;46.72;17.38;;;;;;;-143.48;76.95;118439.88;5033048;28;20099;-32
2022/12/02 07:09:55;;;;;;;43.15;16.08;;;;;;;-143.48;77.27;118439.88;5036893;28;20060;-32
2022/12/02 07:12:24;;;;;;;37.40;14.43;;;;;;;-143.48;76.11;118439.88;5036984;28;20103;-32
2022/12/02 07:14:54;;;;;;;40.58;15.15;;;;;;;-143.48;77.12;118439.88;5036260;28;20060;-32
2022/12/02 07:17:28;;;;;;;41.45;14.98;;;;;;;-143.48;76.63;118439.88;5036463;28;20495;-32
2022/12/02 07:19:57;;;;;;;38.45;14.93;;;;;;;-143.48;76.75;118439.88;5036883;28;20060;-32
2022/12/02 07:22:32;;;;;;;36.00;14.38;;;;;;;-143.48;77.13;118439.88;5035270;28;20469;-32
2022/12/02 07:25:13;;;;;;;32.95;13.88;;;;;;;-143.48;76.90;118439.88;5049167;28;20025;-32
2022/12/02 07:27:41;;;;;;;34.10;14.02;;;;;;;-143.48;76.98;118439.88;5034057;28;20026;-31
2022/12/02 07:30:26;;;;;;;34.83;14.38;;;;;;;-143.48;77.25;118439.88;5033913;28;20074;-32
2022/12/02 07:32:52;;;;;;;34.30;14.35;;;;;;;-143.48;77.04;118439.88;5032462;28;20036;-32
2022/12/02 07:35:18;;;;;;;34.25;14.38;;;;;;;-143.48;78.53;118439.88;5034539;28;20029;-32
2022/12/02 07:37:44;;;;;;;37.72;14.30;;;;;;;-143.48;78.06;118439.88;5034829;28;20384;-32
2022/12/02 07:40:11;;;;;;;37.38;15.38;;;;;;;-143.48;78.13;118439.88;5034279;28;20040;-32
2022/12/02 07:42:36;;;;;;;30.85;13.55;;;;;;;-143.48;78.52;118439.88;5035828;28;20136;-32
2022/12/02 07:45:02;;;;;;;34.45;14.23;;;;;;;-143.48;77.46;118439.88;5035822;28;20041;-32
2022/12/02 07:47:38;;;;;;;33.28;13.13;;;;;;;-143.48;77.27;118439.88;5034560;28;20084;-33
2022/12/02 07:50:04;;;;;;;33.60;13.48;;;;;;;-143.48;77.79;118439.88;5035453;28;20022;-34
2022/12/02 07:52:30;;;;;;;35.72;14.18;;;;;;;-143.48;79.05;118439.88;5034680;28;20060;-39
2022/12/02 07:54:57;;;;;;;32.35;13.20;;;;;;;-143.48;78.46;118439.88;5035985;28;20032;-32
2022/12/02 07:57:22;;;;;;;32.38;13.43;;;;;;;-143.48;78.17;118439.88;5034862;28;20040;-31
2022/12/02 07:59:48;;;;;;;37.47;14.60;;;;;;;-143.48;78.58;118439.88;5035807;28;20445;-32
2022/12/02 08:02:13;;;;;;;35.25;14.30;;;;;;;-143.48;78.22;118439.88;5035523;28;20108;-31
2022/12/02 08:04:39;;;;;;;38.38;14.93;;;;;;;-143.48;77.40;118439.88;5035373;28;20044;-31
2022/12/02 08:07:04;;;;;;;35.70;14.80;;;;;;;-143.48;78.60;118439.88;5035696;28;20416;-33
2022/12/02 08:09:30;;;;;;;32.90;14.35;;;;;;;-143.48;78.21;118439.88;5035565;28;20045;-32
2022/12/02 08:11:56;;;;;;;31.67;14.40;;;;;;;-143.48;77.74;118439.88;5034352;28;20405;-41
2022/12/02 08:14:21;;;;;;;33.95;14.77;;;;;;;-143.48;78.91;118439.88;5034455;28;20041;-31
2022/12/02 08:16:47;;;;;;;37.42;14.68;;;;;;;-143.48;78.20;118439.88;5034175;28;20116;-33
2022/12/02 08:19:24;;;;;;;30.77;13.82;;;;;;;-143.48;78.57;118439.88;5033895;28;20053;-32
2022/12/02 08:21:51;;;;;;;36.70;14.45;;;;;;;-143.48;77.64;118439.88;5035588;28;20025;-32
2022/12/02 08:24:20;;;;;;;30.98;14.23;;;;;;;-143.48;78.62;118439.88;5034037;28;20031;-32
2022/12/02 08:26:45;;;;;;;31.17;13.30;;;;;;;-143.48;78.03;118439.88;5050845;28;20361;-31
2022/12/02 08:29:11;;;;;;;35.17;13.25;;;;;;;-143.48;78.39;118439.88;5035188;28;20024;-31
2022/12/02 08:31:46;;;;;;;36.05;13.52;;;;;;;-143.48;78.90;118439.88;5035267;28;20057;-32
2022/12/02 08:34:14;;;;;;;35.42;14.60;;;;;;;-143.48;77.93;118439.88;5034152;28;20022;-32
2022/12/02 08:36:49;;;;;;;31.17;13.60;;;;;;;-143.48;78.75;118439.88;5033895;28;20550;-32
2022/12/02 08:39:18;;;;;;;33.00;13.90;;;;;;;-143.48;77.89;118439.88;5035089;28;20028;-32
2022/12/02 08:41:46;;;;;;;34.55;13.30;;;;;;;-143.48;77.95;118439.88;5033678;28;20025;-33
2022/12/02 08:44:18;;;;;;;32.85;13.40;;;;;;;-143.48;78.37;118439.88;5035074;28;20029;-33
2022/12/02 08:46:44;;;;;;;28.65;12.95;;;;;;;-143.48;77.86;118439.88;5033695;28;20025;-30
2022/12/02 08:49:13;;;;;;;32.60;13.05;;;;;;;-143.48;78.25;118439.88;5033649;28;20036;-31
2022/12/02 08:51:54;;;;;;;35.13;13.27;;;;;;;-143.48;78.06;118439.88;5033786;28;20029;-32
2022/12/02 08:54:22;;;;;;;33.28;12.48;;;;;;;-143.48;78.05;118439.88;5034817;28;20022;-32
2022/12/02 08:56:59;;;;;;;38.25;13.30;;;;;;;-143.48;77.30;118439.88;5034981;28;20460;-32
2022/12/02 08:59:27;;;;;;;36.92;13.75;;;;;;;-143.48;78.50;118439.88;5033628;28;20018;-32
2022/12/02 09:01:56;;;;;;;33.20;13.88;;;;;;;-143.48;77.80;118439.88;5049725;28;20029;-32
2022/12/02 09:04:28;;;;;;;37.15;14.05;;;;;;;-143.48;77.72;118439.88;5034663;28;20053;-32
2022/12/02 09:07:01;;;;;;;33.25;13.48;;;;;;;-143.48;77.90;118439.88;5035086;28;20030;-32
2022/12/02 09:09:32;;;;;;;37.88;13.45;;;;;;;-143.48;77.98;118439.88;5033179;28;20032;-32
2022/12/02 09:11:58;;;;;;;31.13;12.35;;;;;;;-143.48;77.06;118439.88;5033600;28;20033;-32
2022/12/02 09:14:23;;;;;;;33.00;13.00;;;;;;;-143.48;77.82;118439.88;5033184;28;20025;-32
2022/12/02 09:16:49;;;;;;;30.02;13.02;;;;;;;-143.48;77.73;118439.88;5033298;28;20381;-32
2022/12/02 09:19:18;;;;;;;34.88;13.57;;;;;;;-143.48;77.96;118439.88;5033236;28;20049;-32
2022/12/02 09:21:44;;;;;;;33.90;13.27;;;;;;;-143.48;78.78;118439.88;5017003;28;20040;-32
2022/12/02 09:24:10;;;;;;;31.75;13.38;;;;;;;-143.48;76.95;118439.88;5033639;28;20558;-32
2022/12/02 09:26:35;;;;;;;39.80;14.10;;;;;;;-143.48;77.90;118439.88;5034027;28;20050;-32
2022/12/02 09:29:04;;;;;;;37.22;14.35;;;;;;;-143.48;78.01;118439.88;5033931;28;20051;-34
2022/12/02 09:31:36;;;;;;;35.40;14.70;;;;;;;-143.48;78.72;118439.88;5033495;28;20128;-32
2022/12/02 09:34:01;;;;;;;38.45;14.52;;;;;;;-143.48;77.98;118439.88;5034079;28;20103;-33
2022/12/02 09:36:27;;;;;;;38.35;15.13;;;;;;;-143.48;78.55;118439.88;5034438;28;20025;-34
2022/12/02 09:38:52;;;;;;;37.30;14.85;;;;;;;-143.48;77.83;118439.88;5033905;28;20018;-36
2022/12/02 09:41:21;;;;;;;41.00;14.63;;;;;;;-143.48;78.17;118439.88;5032692;28;20048;-35
2022/12/02 09:43:48;;;;;;;37.45;14.68;;;;;;;-143.48;78.31;118439.88;5033885;28;20439;-32
2022/12/02 09:46:17;;;;;;;36.97;14.57;;;;;;;-143.48;77.16;118439.88;5032579;28;20053;-34
2022/12/02 09:48:43;;;;;;;32.78;14.23;;;;;;;-143.48;76.93;118439.88;5033862;28;20535;-36
2022/12/02 09:51:10;;;;;;;35.60;15.10;;;;;;;-143.48;76.62;118439.88;5048181;28;20033;-36
2022/12/02 09:53:40;;;;;;;37.88;15.15;;;;;;;-143.48;77.70;118439.88;5033636;28;20108;-32
2022/12/02 09:56:16;;;;;;;37.42;14.88;;;;;;;-143.48;77.12;118439.88;5032327;28;20468;-37
2022/12/02 09:58:50;;;;;;;34.53;14.40;;;;;;;-143.48;76.12;118439.88;5033612;28;20362;-36
2022/12/02 10:01:23;;;;;;;42.50;14.55;;;;;;;-143.48;76.24;118439.88;5032324;28;20510;-33
2022/12/02 10:03:50;;;;;;;38.47;15.15;;;;;;;-143.48;77.32;118439.88;5033669;28;20480;-34
2022/12/02 10:06:31;;;;;;;43.00;15.45;;;;;;;-143.48;76.36;118439.88;5031856;28;20496;-37
2022/12/02 10:08:57;;;;;;;38.88;15.60;;;;;;;-143.48;75.75;118439.88;5048581;28;20030;-36
2022/12/02 10:11:28;;;;;;;43.53;15.88;;;;;;;-143.48;76.87;118439.88;5032292;28;20135;-37
2022/12/02 10:13:55;;;;;;;46.50;15.57;;;;;;;-143.48;76.08;118439.88;5033350;28;20116;-34
2022/12/02 10:16:20;;;;;;;44.20;16.90;;;;;;;-143.48;76.52;118439.88;5033292;28;20384;-31
2022/12/02 10:18:46;;;;;;;43.17;15.30;;;;;;;-143.48;76.70;118439.88;5033592;28;20021;-32
2022/12/02 10:21:22;;;;;;;42.13;15.65;;;;;;;-143.48;76.33;118439.88;5033326;28;20044;-32
2022/12/02 10:23:58;;;;;;;44.67;17.05;;;;;;;-143.48;76.74;118439.88;5033653;28;20033;-32
2022/12/02 10:26:24;;;;;;;48.53;17.02;;;;;;;-143.48;75.74;118439.88;5034261;28;20380;-33
2022/12/02 10:29:08;;;;;;;49.20;18.20;;;;;;;-143.48;76.30;118439.88;5033553;28;20382;-32
2022/12/02 10:31:34;;;;;;;45.67;17.33;;;;;;;-143.48;75.63;118439.88;5048079;28;20493;-32
2022/12/02 10:34:03;;;;;;;53.47;16.88;;;;;;;-143.48;75.62;118439.88;5033380;28;20036;-36
2022/12/02 10:36:48;;;;;;;57.13;17.20;;;;;;;-143.48;74.56;118439.88;5033329;28;20029;-36
2022/12/02 10:39:23;;;;;;;45.92;18.05;;;;;;;-143.48;74.75;118439.88;5032479;28;20025;-39
2022/12/02 10:42:06;;;;;;;47.97;17.30;;;;;;;-143.48;75.31;118439.88;5048617;28;20025;-37
2022/12/02 10:44:41;;;;;;;51.17;18.42;;;;;;;-143.48;75.85;118439.88;5035861;28;20029;-37
2022/12/02 10:47:21;;;;;;;54.00;17.73;;;;;;;-143.48;76.33;118439.88;5036162;28;20025;-37
2022/12/02 10:49:55;;;;;;;51.55;17.95;;;;;;;-143.48;77.35;118439.88;5036777;28;20072;-37
2022/12/02 10:52:30;;;;;;;54.65;18.45;;;;;;;-143.48;75.75;118439.88;5035919;28;20373;-37
2022/12/02 10:55:00;;;;;;;44.53;15.25;;;;;;;-143.48;74.65;118439.88;5035839;28;20107;-37
2022/12/02 10:57:32;;;;;;;44.60;16.75;;;;;;;-143.48;77.86;118439.88;5037483;28;20033;-37
2022/12/02 11:00:04;;;;;;;51.60;17.95;;;;;;;-143.48;76.80;118439.88;5036689;28;20368;-36
2022/12/02 11:02:37;;;;;;;46.33;17.95;;;;;;;-143.48;75.42;118439.88;5036989;28;20033;-36
2022/12/02 11:05:19;;;;;;;44.95;16.17;;;;;;;-143.48;76.30;118439.88;5035712;28;20068;-37